Time;durP1;ratioP1;P1;durP2;ratioP2;P2;SDS_P1;SDS_P2;PMS_P1;PMS_P2;Temp;Humidity;BMP_temperature;BMP_pressure;BME280_temperature;BME280_humidity;BME280_pressure;Samples;Min_cycle;Max_cycle;Signal;HPM_P1;HPM_P2
2021/12/25 00:00:58;;;;;;;3.27;1.33;;;0.30;99.90;;;;;;4161985;28;20481;-75
2021/12/25 00:03:00;;;;;;;3.57;1.70;;;0.30;99.90;;;;;;4157807;28;20471;-75
2021/12/25 00:05:04;;;;;;;3.23;1.60;;;0.30;99.90;;;;;;4147630;28;20480;-75
2021/12/25 00:07:06;;;;;;;2.80;1.53;;;0.30;99.90;;;;;;4158546;28;20472;-74
2021/12/25 00:09:08;;;;;;;2.90;1.53;;;0.30;99.90;;;;;;4171662;28;20461;-75
2021/12/25 00:11:10;;;;;;;2.00;1.30;;;0.20;99.90;;;;;;4164347;28;20552;-74
2021/12/25 00:13:13;;;;;;;1.77;1.27;;;0.20;99.90;;;;;;4158116;28;20478;-75
2021/12/25 00:15:15;;;;;;;3.63;1.70;;;0.20;99.90;;;;;;4163414;28;20552;-75
2021/12/25 00:17:16;;;;;;;3.07;1.63;;;0.20;99.90;;;;;;4163713;28;20500;-74
2021/12/25 00:19:18;;;;;;;2.70;1.60;;;0.20;99.90;;;;;;4159052;28;20519;-75
2021/12/25 00:21:21;;;;;;;3.30;1.73;;;0.20;99.90;;;;;;4159438;28;20919;-73
2021/12/25 00:23:24;;;;;;;4.80;1.80;;;0.20;99.90;;;;;;4163548;28;20446;-75
2021/12/25 00:25:25;;;;;;;3.30;1.83;;;0.10;99.90;;;;;;4162968;28;20470;-75
2021/12/25 00:27:45;;;;;;;3.87;1.30;;;0.10;99.90;;;;;;4157831;28;20473;-75
2021/12/25 00:30:07;;;;;;;2.90;1.57;;;0.10;99.90;;;;;;4163263;28;20613;-75
2021/12/25 00:32:29;;;;;;;3.73;1.37;;;0.10;99.90;;;;;;4161253;28;20459;-75
2021/12/25 00:34:31;;;;;;;3.00;1.30;;;0.10;99.90;;;;;;4145915;28;20837;-74
2021/12/25 00:36:34;;;;;;;2.17;1.30;;;0.10;99.90;;;;;;4149859;28;20500;-75
2021/12/25 00:38:36;;;;;;;3.00;1.40;;;0.00;99.90;;;;;;4146590;28;20471;-75
2021/12/25 00:40:38;;;;;;;3.40;1.40;;;0.10;99.90;;;;;;4148056;28;20808;-73
2021/12/25 00:42:40;;;;;;;2.23;1.27;;;0.00;99.90;;;;;;4162427;28;20592;-75
2021/12/25 00:44:42;;;;;;;2.67;1.27;;;0.00;99.90;;;;;;4162622;28;20473;-74
2021/12/25 00:46:44;;;;;;;2.27;1.47;;;0.00;99.90;;;;;;4155136;28;20519;-74
2021/12/25 00:48:46;;;;;;;1.90;1.30;;;0.00;99.90;;;;;;4165316;28;20465;-75
2021/12/25 00:50:48;;;;;;;1.83;1.20;;;0.00;99.90;;;;;;4166837;28;20567;-75
2021/12/25 00:52:51;;;;;;;2.97;1.40;;;0.00;99.90;;;;;;4166316;28;21024;-75
2021/12/25 00:54:53;;;;;;;3.00;1.57;;;0.00;99.90;;;;;;4164687;28;20489;-73
2021/12/25 00:56:54;;;;;;;3.43;1.33;;;0.00;99.90;;;;;;4166219;28;20469;-75
2021/12/25 00:58:56;;;;;;;2.37;1.30;;;0.00;99.90;;;;;;4166329;28;20519;-74
2021/12/25 01:00:58;;;;;;;1.63;1.13;;;0.00;99.90;;;;;;4165195;28;21011;-76
2021/12/25 01:02:59;;;;;;;2.73;1.40;;;0.00;99.90;;;;;;4161938;28;20475;-75
2021/12/25 01:05:01;;;;;;;2.30;1.20;;;0.00;99.90;;;;;;4182427;28;20484;-74
2021/12/25 01:07:03;;;;;;;5.07;1.47;;;0.00;99.90;;;;;;4172253;28;20469;-76
2021/12/25 01:09:06;;;;;;;2.13;1.10;;;0.00;99.90;;;;;;4165150;28;20454;-76
2021/12/25 01:11:08;;;;;;;0.83;0.83;;;0.00;99.90;;;;;;4158874;28;20921;-74
2021/12/25 01:13:14;;;;;;;1.60;1.10;;;0.00;99.90;;;;;;4160710;28;20470;-76
2021/12/25 01:15:18;;;;;;;2.67;1.30;;;0.00;99.90;;;;;;4165196;28;20485;-75
2021/12/25 01:17:41;;;;;;;1.33;1.00;;;0.00;99.90;;;;;;4164887;28;20542;-75
2021/12/25 01:22:35;;;;;;;1.40;0.87;;;0.00;99.90;;;;;;4155670;28;20438;-76
2021/12/25 01:29:24;;;;;;;2.50;1.00;;;0.00;99.90;;;;;;4158665;28;21057;-75
2021/12/25 01:31:34;;;;;;;2.93;1.10;;;0.00;99.90;;;;;;4162739;28;20490;-74
2021/12/25 01:38:26;;;;;;;1.43;0.97;;;0.00;99.90;;;;;;4143403;28;20473;-86
2021/12/25 01:40:48;;;;;;;3.00;1.07;;;-0.10;99.90;;;;;;4149628;28;20443;-86
2021/12/25 01:47:49;;;;;;;0.90;0.80;;;-0.10;99.90;;;;;;4136177;28;20462;-87
2021/12/25 01:49:52;;;;;;;1.77;0.90;;;-0.10;99.90;;;;;;4135265;28;20502;-86
2021/12/25 01:51:54;;;;;;;1.10;0.70;;;-0.10;99.90;;;;;;4136798;28;20498;-86
2021/12/25 01:53:55;;;;;;;2.17;0.60;;;-0.10;99.90;;;;;;4145734;28;20451;-86
2021/12/25 01:56:01;;;;;;;2.43;0.70;;;-0.20;99.90;;;;;;4118403;28;20556;-86
2021/12/25 01:58:05;;;;;;;0.90;0.67;;;-0.20;99.90;;;;;;4120694;28;20445;-86
2021/12/25 02:00:11;;;;;;;2.00;0.80;;;-0.30;99.90;;;;;;4138016;28;20793;-86
2021/12/25 02:02:14;;;;;;;0.80;0.40;;;-0.30;99.90;;;;;;4132086;28;20953;-86
2021/12/25 02:04:16;;;;;;;1.10;0.60;;;-0.30;99.90;;;;;;4116809;28;20479;-86
2021/12/25 02:06:18;;;;;;;1.17;0.60;;;-0.40;99.90;;;;;;4126637;28;20815;-86
2021/12/25 02:08:20;;;;;;;2.40;0.80;;;-0.40;99.90;;;;;;4134265;28;20460;-85
2021/12/25 02:10:22;;;;;;;0.50;0.50;;;-0.40;99.90;;;;;;4132080;28;20483;-85
2021/12/25 02:12:25;;;;;;;0.80;0.50;;;-0.50;99.90;;;;;;4132949;28;20522;-86
2021/12/25 02:14:28;;;;;;;1.10;0.57;;;-0.50;99.90;;;;;;4134008;28;20468;-85
2021/12/25 02:16:41;;;;;;;1.20;0.50;;;-0.50;99.90;;;;;;4136581;28;20466;-86
2021/12/25 02:19:00;;;;;;;0.97;0.50;;;-0.50;99.90;;;;;;4150310;28;20451;-86
2021/12/25 02:21:10;;;;;;;0.80;0.47;;;-0.60;99.90;;;;;;4129437;28;20898;-85
2021/12/25 02:23:15;;;;;;;0.43;0.37;;;-0.60;99.90;;;;;;4134682;28;20448;-85
2021/12/25 02:25:17;;;;;;;0.40;0.40;;;-0.60;99.90;;;;;;4134374;28;20590;-85
2021/12/25 02:27:19;;;;;;;3.50;0.43;;;-0.70;99.90;;;;;;4133288;28;20469;-85
2021/12/25 02:29:20;;;;;;;0.77;0.77;;;-0.70;99.90;;;;;;4134900;28;20514;-85
2021/12/25 02:31:23;;;;;;;0.80;0.53;;;-0.70;99.90;;;;;;4134095;28;20996;-85
2021/12/25 02:33:26;;;;;;;0.77;0.50;;;-0.70;99.90;;;;;;4134586;28;20459;-85
2021/12/25 02:35:29;;;;;;;1.77;0.60;;;-0.70;99.90;;;;;;4131726;28;20511;-85
2021/12/25 02:37:32;;;;;;;1.35;0.45;;;-0.70;99.90;;;;;;4124141;28;20227;-85
2021/12/25 02:39:34;;;;;;;0.70;0.43;;;-0.80;99.90;;;;;;4135006;28;20242;-85
2021/12/25 02:41:35;;;;;;;0.77;0.40;;;-0.80;99.90;;;;;;4134466;28;20476;-85
2021/12/25 02:43:38;;;;;;;0.95;0.50;;;-0.80;99.90;;;;;;4129228;28;20263;-85
2021/12/25 02:45:40;;;;;;;1.53;0.40;;;-0.80;99.90;;;;;;4118671;28;20232;-85
2021/12/25 02:47:43;;;;;;;0.85;0.50;;;-0.80;99.90;;;;;;4126299;28;20447;-85
2021/12/25 02:49:48;;;;;;;2.73;0.73;;;-0.90;99.90;;;;;;4151896;28;20258;-85
2021/12/25 02:51:51;;;;;;;0.75;0.47;;;-0.90;99.90;;;;;;4151676;28;20863;-85
2021/12/25 02:53:55;;;;;;;1.03;0.47;;;-0.90;99.90;;;;;;4125993;28;20213;-86
2021/12/25 02:55:57;;;;;;;0.43;0.40;;;-1.00;99.90;;;;;;4124592;28;20503;-85
2021/12/25 02:57:59;;;;;;;0.25;0.25;;;-1.00;99.90;;;;;;4134461;28;20216;-84
2021/12/25 03:00:00;;;;;;;0.80;0.40;;;-1.10;99.90;;;;;;4149748;28;20201;-85
2021/12/25 03:02:07;;;;;;;3.28;0.60;;;-1.10;99.90;;;;;;4140330;28;20523;-85
2021/12/25 03:04:09;;;;;;;0.45;0.30;;;-1.10;99.90;;;;;;4132019;28;20213;-84
2021/12/25 03:06:12;;;;;;;0.70;0.43;;;-1.10;99.90;;;;;;4120859;28;20221;-84
2021/12/25 03:08:14;;;;;;;1.00;0.57;;;-1.10;99.90;;;;;;4124074;28;20466;-84
2021/12/25 03:10:18;;;;;;;1.45;0.60;;;-1.20;99.90;;;;;;4150734;28;20273;-85
2021/12/25 03:12:28;;;;;;;0.90;0.60;;;-1.20;99.90;;;;;;4123162;28;20233;-85
2021/12/25 03:14:38;;;;;;;0.77;0.45;;;-1.20;99.90;;;;;;4118775;28;20472;-84
2021/12/25 03:16:40;;;;;;;0.82;0.52;;;-1.20;99.90;;;;;;4118761;28;20213;-85
2021/12/25 03:18:48;;;;;;;1.45;0.65;;;-1.30;99.90;;;;;;4125738;28;20235;-85
2021/12/25 03:20:52;;;;;;;1.02;0.60;;;-1.30;99.90;;;;;;4119115;28;20235;-85
2021/12/25 03:22:53;;;;;;;0.65;0.55;;;-1.30;99.90;;;;;;4118002;28;20279;-84
2021/12/25 03:24:55;;;;;;;0.90;0.47;;;-1.30;99.90;;;;;;4117807;28;20646;-85
2021/12/25 03:26:58;;;;;;;1.70;0.60;;;-1.30;99.90;;;;;;4118719;28;20658;-85
2021/12/25 03:29:03;;;;;;;1.77;0.73;;;-1.30;99.90;;;;;;4125026;28;20204;-85
2021/12/25 03:31:13;;;;;;;1.03;0.70;;;-1.30;99.90;;;;;;4150367;28;20487;-85
2021/12/25 03:33:18;;;;;;;2.22;0.70;;;-1.30;99.90;;;;;;4151733;28;20553;-85
2021/12/25 03:35:20;;;;;;;0.75;0.43;;;-1.40;99.90;;;;;;4141262;28;20248;-84
2021/12/25 03:37:22;;;;;;;0.53;0.40;;;-1.40;99.90;;;;;;4118656;28;20242;-84
2021/12/25 03:39:23;;;;;;;1.48;0.60;;;-1.40;99.90;;;;;;4125983;28;20467;-85
2021/12/25 03:41:25;;;;;;;1.90;0.70;;;-1.40;99.90;;;;;;4150648;28;20704;-85
2021/12/25 03:43:29;;;;;;;2.70;0.50;;;-1.40;99.90;;;;;;4144225;28;20484;-85
2021/12/25 03:45:32;;;;;;;0.68;0.50;;;-1.50;99.90;;;;;;4119471;28;20292;-84
2021/12/25 03:47:37;;;;;;;0.68;0.43;;;-1.50;99.90;;;;;;4119270;28;20329;-84
2021/12/25 03:53:08;;;;;;;1.00;0.50;;;-1.50;99.90;;;;;;4124880;28;20204;-84
2021/12/25 03:59:11;;;;;;;0.57;0.50;;;-1.50;99.90;;;;;;4141580;28;20238;-84
2021/12/25 04:01:26;;;;;;;0.88;0.40;;;-1.60;99.90;;;;;;4135097;28;20208;-83
2021/12/25 04:03:41;;;;;;;0.40;0.30;;;-1.60;99.90;;;;;;4128015;28;20220;-84
2021/12/25 04:05:45;;;;;;;0.30;0.30;;;-1.60;99.90;;;;;;4119926;28;20607;-83
2021/12/25 04:10:09;;;;;;;0.43;0.40;;;-1.60;99.90;;;;;;4121168;28;20247;-83
2021/12/25 04:12:14;;;;;;;1.15;0.50;;;-1.60;99.90;;;;;;4137443;28;20232;-83
2021/12/25 04:14:17;;;;;;;0.93;0.45;;;-1.60;99.90;;;;;;4136339;28;20262;-83
2021/12/25 04:16:19;;;;;;;0.52;0.38;;;-1.60;99.90;;;;;;4136582;28;20271;-83
2021/12/25 04:18:22;;;;;;;1.10;0.47;;;-1.70;99.90;;;;;;4134954;28;20216;-84
2021/12/25 04:20:24;;;;;;;2.00;0.50;;;-1.70;99.90;;;;;;4119688;28;20482;-83
2021/12/25 04:22:32;;;;;;;0.40;0.40;;;-1.70;99.90;;;;;;4153168;28;20208;-83
2021/12/25 04:24:38;;;;;;;0.60;0.50;;;-1.70;99.90;;;;;;4156014;28;20580;-83
2021/12/25 04:26:42;;;;;;;0.50;0.30;;;-1.70;99.90;;;;;;4155329;28;20282;-83
2021/12/25 04:28:49;;;;;;;1.02;0.40;;;-1.70;99.90;;;;;;4140278;28;20263;-83
2021/12/25 04:31:09;;;;;;;0.98;0.50;;;-1.70;99.90;;;;;;4140873;28;20263;-83
2021/12/25 04:42:42;;;;;;;0.50;0.40;;;-1.70;99.90;;;;;;4138818;28;20259;-84
2021/12/25 04:47:42;;;;;;;1.55;0.63;;;-1.80;99.90;;;;;;4151066;28;20207;-82
2021/12/25 04:50:22;;;;;;;2.05;0.50;;;-1.80;99.90;;;;;;4076710;28;20241;-81
2021/12/25 05:01:50;;;;;;;1.42;0.57;;;-1.80;99.90;;;;;;4139511;28;20208;-82
2021/12/25 05:03:57;;;;;;;1.00;0.50;;;-1.90;99.90;;;;;;4135278;28;20212;-82
2021/12/25 05:06:00;;;;;;;2.35;0.60;;;-1.80;99.90;;;;;;4139001;28;20244;-83
2021/12/25 05:08:02;;;;;;;1.90;0.68;;;-1.90;99.90;;;;;;4138159;28;20281;-83
2021/12/25 05:10:04;;;;;;;2.50;0.80;;;-1.90;99.90;;;;;;4138052;28;20213;-82
2021/12/25 05:12:07;;;;;;;0.98;0.68;;;-1.90;99.90;;;;;;4126072;28;20232;-83
2021/12/25 05:14:09;;;;;;;0.60;0.45;;;-1.90;99.90;;;;;;4133933;28;20239;-83
2021/12/25 05:16:11;;;;;;;1.38;0.65;;;-1.90;99.90;;;;;;4139140;28;20278;-82
2021/12/25 05:18:12;;;;;;;2.58;0.60;;;-1.90;99.90;;;;;;4139703;28;20536;-83
2021/12/25 05:20:16;;;;;;;1.80;0.60;;;-1.90;99.90;;;;;;4139681;28;20279;-83
2021/12/25 05:22:18;;;;;;;0.77;0.57;;;-1.90;99.90;;;;;;4124545;28;20477;-83
2021/12/25 05:24:20;;;;;;;1.37;0.57;;;-1.90;99.90;;;;;;4152939;28;20212;-83
2021/12/25 05:26:21;;;;;;;0.73;0.45;;;-2.00;99.90;;;;;;4153321;28;20459;-83
2021/12/25 05:28:26;;;;;;;1.65;0.70;;;-2.00;99.90;;;;;;4152621;28;20211;-82
2021/12/25 05:30:29;;;;;;;2.13;0.60;;;-2.00;99.90;;;;;;4152263;28;20250;-83
2021/12/25 05:32:31;;;;;;;1.48;0.73;;;-2.00;99.90;;;;;;4119863;28;20233;-83
2021/12/25 05:34:32;;;;;;;1.17;0.70;;;-2.00;99.90;;;;;;4145959;28;20305;-83
2021/12/25 05:36:35;;;;;;;1.15;0.60;;;-2.00;99.90;;;;;;4152016;28;20224;-83
2021/12/25 05:38:37;;;;;;;0.90;0.68;;;-2.00;99.90;;;;;;4152539;28;20208;-83
2021/12/25 05:40:39;;;;;;;0.77;0.60;;;-2.00;99.90;;;;;;4138836;28;20268;-82
2021/12/25 05:42:41;;;;;;;1.40;0.60;;;-2.00;99.90;;;;;;4119828;28;20213;-82
2021/12/25 05:44:43;;;;;;;1.27;0.60;;;-2.00;99.90;;;;;;4144554;28;20479;-83
2021/12/25 05:46:45;;;;;;;0.85;0.50;;;-2.00;99.90;;;;;;4134158;28;20252;-83
2021/12/25 05:48:48;;;;;;;1.97;0.70;;;-2.00;99.90;;;;;;4120045;28;20344;-82
2021/12/25 05:50:50;;;;;;;1.87;0.70;;;-2.10;99.90;;;;;;4119703;28;20823;-83
2021/12/25 05:52:55;;;;;;;2.50;0.70;;;-2.10;99.90;;;;;;4119890;28;20492;-82
2021/12/25 05:54:57;;;;;;;1.27;0.60;;;-2.10;99.90;;;;;;4143495;28;20231;-82
2021/12/25 05:56:59;;;;;;;1.70;0.70;;;-2.10;99.90;;;;;;4133498;28;20216;-82
2021/12/25 05:59:00;;;;;;;1.00;0.70;;;-1.90;99.90;;;;;;4136409;28;20221;-82
2021/12/25 06:01:03;;;;;;;1.42;0.63;;;-2.10;99.90;;;;;;4135912;28;20452;-82
2021/12/25 06:03:06;;;;;;;0.77;0.50;;;-2.10;99.90;;;;;;4131741;28;20621;-81
2021/12/25 06:05:08;;;;;;;0.47;0.40;;;-2.10;99.90;;;;;;4140520;28;20471;-83
2021/12/25 06:07:09;;;;;;;1.13;0.60;;;-2.10;99.90;;;;;;4152521;28;20439;-82
2021/12/25 06:09:12;;;;;;;2.25;0.40;;;-2.10;99.90;;;;;;4152428;28;20494;-83
2021/12/25 06:11:16;;;;;;;0.50;0.50;;;-2.10;99.90;;;;;;4138528;28;20229;-83
2021/12/25 06:13:20;;;;;;;1.90;0.50;;;-2.10;99.90;;;;;;4119875;28;20492;-82
2021/12/25 06:15:23;;;;;;;1.00;0.50;;;-2.10;99.90;;;;;;4135337;28;20232;-82
2021/12/25 06:17:24;;;;;;;0.68;0.50;;;-2.10;99.90;;;;;;4136672;28;20573;-83
2021/12/25 06:19:26;;;;;;;0.88;0.50;;;-2.10;99.90;;;;;;4132806;28;20303;-82
2021/12/25 06:21:28;;;;;;;1.47;0.50;;;-2.10;99.90;;;;;;4120153;28;20588;-82
2021/12/25 06:23:30;;;;;;;1.05;0.50;;;-2.10;99.90;;;;;;4124362;28;20862;-82
2021/12/25 06:25:33;;;;;;;1.40;0.60;;;-2.10;99.90;;;;;;4136900;28;20232;-82
2021/12/25 06:27:35;;;;;;;1.10;0.55;;;-2.10;99.90;;;;;;4134880;28;20267;-82
2021/12/25 06:29:37;;;;;;;2.07;0.60;;;-2.10;99.90;;;;;;4121142;28;20746;-81
2021/12/25 06:31:39;;;;;;;0.60;0.60;;;-2.10;99.90;;;;;;4120513;28;20486;-82
2021/12/25 06:33:40;;;;;;;1.73;0.80;;;-2.10;99.90;;;;;;4123537;28;20280;-82
2021/12/25 06:35:42;;;;;;;2.03;0.60;;;-2.10;99.90;;;;;;4142710;28;20507;-82
2021/12/25 06:37:46;;;;;;;1.45;0.50;;;-2.10;99.90;;;;;;4121455;28;20224;-82
2021/12/25 06:39:48;;;;;;;0.40;0.40;;;-2.20;99.90;;;;;;4121654;28;20271;-82
2021/12/25 06:41:51;;;;;;;1.63;0.70;;;-2.20;99.90;;;;;;4121310;28;20544;-82
2021/12/25 06:43:53;;;;;;;0.80;0.45;;;-2.20;99.90;;;;;;4121903;28;20217;-82
2021/12/25 06:45:54;;;;;;;1.38;0.70;;;-2.20;99.90;;;;;;4135562;28;20640;-82
2021/12/25 06:47:56;;;;;;;2.13;0.70;;;-2.20;99.90;;;;;;4121390;28;20272;-82
2021/12/25 06:49:58;;;;;;;2.73;0.60;;;-2.10;99.90;;;;;;4121912;28;20460;-81
2021/12/25 06:51:59;;;;;;;2.03;0.82;;;-2.20;99.90;;;;;;4122649;28;20460;-82
2021/12/25 06:54:02;;;;;;;1.38;0.60;;;-2.20;99.90;;;;;;4125373;28;20205;-81
2021/12/25 06:56:04;;;;;;;1.92;0.55;;;-2.20;99.90;;;;;;4147749;28;20235;-81
2021/12/25 06:58:08;;;;;;;1.48;0.80;;;-2.20;99.90;;;;;;4138263;28;20209;-79
2021/12/25 07:00:11;;;;;;;0.80;0.40;;;-2.20;99.90;;;;;;4146545;28;20220;-82
2021/12/25 07:02:13;;;;;;;1.70;0.73;;;-2.10;99.90;;;;;;4136295;28;20204;-82
2021/12/25 07:04:15;;;;;;;2.55;0.60;;;-2.20;99.90;;;;;;4121251;28;20213;-83
2021/12/25 07:06:17;;;;;;;1.55;0.57;;;-2.20;99.90;;;;;;4145665;28;20609;-82
2021/12/25 07:08:18;;;;;;;3.35;0.82;;;-2.20;99.90;;;;;;4151923;28;20203;-82
2021/12/25 07:10:21;;;;;;;1.73;0.77;;;-2.10;99.90;;;;;;4151935;28;20530;-83
2021/12/25 07:12:25;;;;;;;2.30;0.60;;;-2.20;99.90;;;;;;4120789;28;20488;-82
2021/12/25 07:14:28;;;;;;;1.17;0.70;;;-2.20;99.90;;;;;;4119583;28;20256;-82
2021/12/25 07:16:30;;;;;;;1.50;0.60;;;-2.20;99.90;;;;;;4143802;28;20203;-82
2021/12/25 07:18:31;;;;;;;1.33;0.73;;;-2.20;99.90;;;;;;4147040;28;20216;-82
2021/12/25 07:20:33;;;;;;;2.95;0.90;;;-2.20;99.90;;;;;;4119845;28;20272;-82
2021/12/25 07:22:36;;;;;;;1.42;0.70;;;-2.20;99.90;;;;;;4120655;28;20217;-83
2021/12/25 07:24:38;;;;;;;1.65;0.93;;;-2.20;99.90;;;;;;4120128;28;20235;-82
2021/12/25 07:26:40;;;;;;;1.55;0.70;;;-2.20;99.90;;;;;;4135815;28;20723;-82
2021/12/25 07:28:42;;;;;;;2.70;0.80;;;-2.20;99.90;;;;;;4120316;28;20625;-83
2021/12/25 07:30:45;;;;;;;1.92;0.90;;;-2.20;99.90;;;;;;4120253;28;20597;-82
2021/12/25 07:32:47;;;;;;;1.58;0.65;;;-2.20;99.90;;;;;;4120524;28;20614;-82
2021/12/25 07:34:50;;;;;;;1.95;0.80;;;-2.10;99.90;;;;;;4151945;22;20237;-78
2021/12/25 07:36:52;;;;;;;0.93;0.70;;;-2.20;99.90;;;;;;4180460;28;20234;-75
2021/12/25 07:38:55;;;;;;;2.47;0.85;;;-2.20;99.90;;;;;;4180710;28;20214;-75
2021/12/25 07:40:57;;;;;;;1.90;0.85;;;-2.20;99.90;;;;;;4180577;28;20217;-76
2021/12/25 07:42:58;;;;;;;2.35;0.85;;;-2.10;99.90;;;;;;4180972;28;20666;-77
2021/12/25 07:45:04;;;;;;;1.70;0.77;;;-2.10;99.90;;;;;;4170262;28;20238;-75
2021/12/25 07:47:11;;;;;;;2.35;1.00;;;-2.10;99.90;;;;;;4172202;28;20646;-75
2021/12/25 07:49:18;;;;;;;1.67;0.70;;;-2.10;99.90;;;;;;4180601;28;20568;-76
2021/12/25 07:51:19;;;;;;;3.22;1.20;;;-2.10;99.90;;;;;;4180416;28;20480;-76
2021/12/25 07:53:21;;;;;;;1.63;0.70;;;-2.10;99.90;;;;;;4180684;28;20230;-76
2021/12/25 07:55:23;;;;;;;2.80;1.15;;;-2.10;99.90;;;;;;4177232;28;20993;-76
2021/12/25 07:57:25;;;;;;;1.38;0.77;;;-2.10;99.90;;;;;;4167776;28;20206;-75
2021/12/25 07:59:27;;;;;;;5.03;1.27;;;-2.10;99.90;;;;;;4180491;28;20210;-76
2021/12/25 08:01:31;;;;;;;2.37;0.87;;;-2.10;99.90;;;;;;4180567;28;20464;-75
2021/12/25 08:03:35;;;;;;;3.28;0.98;;;-2.10;99.90;;;;;;4171324;28;20466;-75
2021/12/25 08:05:36;;;;;;;3.97;0.98;;;-2.10;99.90;;;;;;4170389;28;20230;-76
2021/12/25 08:07:38;;;;;;;1.85;1.10;;;-2.10;99.90;;;;;;4180723;28;20215;-75
2021/12/25 08:09:42;;;;;;;3.17;1.10;;;-2.00;99.90;;;;;;4180418;28;20215;-75
2021/12/25 08:11:44;;;;;;;2.47;1.08;;;-2.10;99.90;;;;;;4176276;28;20245;-77
2021/12/25 08:13:45;;;;;;;2.63;1.00;;;-2.10;99.90;;;;;;4181452;28;20288;-76
2021/12/25 08:15:47;;;;;;;1.55;0.90;;;-2.00;99.90;;;;;;4183922;28;20465;-74
2021/12/25 08:17:49;;;;;;;2.17;1.10;;;-2.00;99.90;;;;;;4185294;28;20635;-76
2021/12/25 08:19:52;;;;;;;5.88;1.08;;;-2.00;99.90;;;;;;4184848;28;20557;-74
2021/12/25 08:21:54;;;;;;;2.05;1.08;;;-2.00;99.90;;;;;;4166482;28;20218;-77
2021/12/25 08:23:58;;;;;;;2.22;0.90;;;-2.00;99.90;;;;;;4165156;28;20207;-78
2021/12/25 08:26:00;;;;;;;1.00;0.80;;;-2.00;99.90;;;;;;4179528;28;20288;-76
2021/12/25 08:28:02;;;;;;;3.92;1.10;;;-2.00;99.90;;;;;;4180021;28;20489;-75
2021/12/25 08:30:07;;;;;;;1.55;0.90;;;-2.00;99.90;;;;;;4163726;28;20218;-76
2021/12/25 08:32:09;;;;;;;2.50;1.00;;;-1.90;99.90;;;;;;4163876;28;20215;-77
2021/12/25 08:34:12;;;;;;;1.80;0.80;;;-1.90;99.90;;;;;;4163699;28;20230;-76
2021/12/25 08:36:16;;;;;;;2.42;1.10;;;-1.90;99.90;;;;;;4177447;28;20479;-77
2021/12/25 08:38:18;;;;;;;2.10;0.90;;;-1.90;99.90;;;;;;4164387;28;20594;-77
2021/12/25 08:40:20;;;;;;;1.75;1.05;;;-1.90;99.90;;;;;;4163360;28;20257;-76
2021/12/25 08:42:23;;;;;;;2.85;0.90;;;-1.90;99.90;;;;;;4163810;28;20218;-77
2021/12/25 08:44:33;;;;;;;1.83;0.80;;;-1.80;99.90;;;;;;4163730;28;20207;-77
2021/12/25 08:48:54;;;;;;;1.47;0.60;;;-1.80;99.90;;;;;;4163530;28;20453;-76
2021/12/25 08:50:58;;;;;;;3.10;0.90;;;-1.80;99.90;;;;;;4179805;28;20445;-75
2021/12/25 08:53:01;;;;;;;1.60;0.70;;;-1.80;99.90;;;;;;4179877;28;20488;-76
2021/12/25 08:55:04;;;;;;;2.07;0.97;;;-1.80;99.90;;;;;;4178070;28;20457;-77
2021/12/25 08:57:07;;;;;;;2.30;1.00;;;-1.80;99.90;;;;;;4179176;28;20457;-75
2021/12/25 08:59:09;;;;;;;1.10;0.60;;;-1.80;99.90;;;;;;4179949;28;20457;-76
2021/12/25 09:01:11;;;;;;;1.23;0.90;;;-1.80;99.90;;;;;;4179963;28;20457;-77
2021/12/25 09:03:13;;;;;;;1.80;0.77;;;-1.80;99.90;;;;;;4179880;28;20453;-76
2021/12/25 09:05:15;;;;;;;3.30;1.10;;;-1.80;99.90;;;;;;4168120;28;20489;-78
2021/12/25 09:07:17;;;;;;;1.57;0.80;;;-1.90;99.90;;;;;;4177477;28;20483;-77
2021/12/25 09:09:20;;;;;;;2.77;1.17;;;-1.90;99.90;;;;;;4182052;28;20499;-78
2021/12/25 09:11:22;;;;;;;2.70;1.10;;;-1.80;99.90;;;;;;4182748;28;20506;-77
2021/12/25 09:13:24;;;;;;;3.07;1.03;;;-1.90;99.90;;;;;;4177412;28;20486;-77
2021/12/25 09:15:26;;;;;;;3.10;0.90;;;-1.90;99.90;;;;;;4166172;28;20531;-77
2021/12/25 09:17:27;;;;;;;1.53;1.10;;;-1.90;99.90;;;;;;4178873;28;20462;-77
2021/12/25 09:19:29;;;;;;;1.17;0.70;;;-1.90;99.90;;;;;;4182944;28;20464;-78
2021/12/25 09:21:31;;;;;;;3.53;1.23;;;-1.90;99.90;;;;;;4174830;28;20477;-77
2021/12/25 09:23:33;;;;;;;2.27;0.70;;;-1.90;99.90;;;;;;4166250;28;20450;-77
2021/12/25 09:25:37;;;;;;;2.35;0.88;;;-1.90;99.90;;;;;;4166276;28;20711;-77
2021/12/25 09:27:39;;;;;;;3.37;1.10;;;-1.90;99.90;;;;;;4177568;28;20210;-77
2021/12/25 09:29:41;;;;;;;2.13;1.03;;;-1.90;99.90;;;;;;4182641;28;20460;-77
2021/12/25 09:31:43;;;;;;;1.87;1.00;;;-1.90;99.90;;;;;;4167085;28;20998;-77
2021/12/25 09:33:44;;;;;;;1.90;0.83;;;-2.00;99.90;;;;;;4166047;28;20489;-77
2021/12/25 09:35:46;;;;;;;5.47;1.10;;;-2.00;99.90;;;;;;4165893;28;20478;-77
2021/12/25 09:37:48;;;;;;;3.13;0.87;;;-2.00;99.90;;;;;;4175790;28;20465;-77
2021/12/25 09:39:50;;;;;;;2.90;1.20;;;-2.10;99.90;;;;;;4166897;28;20474;-77
2021/12/25 09:41:53;;;;;;;1.77;1.00;;;-2.10;99.90;;;;;;4166040;28;20515;-76
2021/12/25 09:43:54;;;;;;;1.50;1.00;;;-2.10;99.90;;;;;;4166157;28;20527;-76
2021/12/25 09:45:57;;;;;;;2.93;1.23;;;-2.10;99.90;;;;;;4164751;28;20520;-77
2021/12/25 09:47:59;;;;;;;1.52;0.90;;;-2.10;99.90;;;;;;4174233;28;20527;-74
2021/12/25 09:50:00;;;;;;;2.42;1.10;;;-2.10;99.90;;;;;;4181747;28;20264;-74
2021/12/25 09:52:02;;;;;;;2.10;1.00;;;-2.10;99.90;;;;;;4182202;28;20210;-73
2021/12/25 09:54:07;;;;;;;3.08;1.00;;;-2.10;99.90;;;;;;4182448;28;20226;-73
2021/12/25 09:56:09;;;;;;;2.17;1.13;;;-2.10;99.90;;;;;;4180265;28;20627;-73
2021/12/25 09:58:12;;;;;;;4.43;1.20;;;-2.00;99.90;;;;;;4181651;28;20213;-72
2021/12/25 10:00:17;;;;;;;3.30;1.00;;;-2.20;99.90;;;;;;4181691;28;20457;-73
2021/12/25 10:02:20;;;;;;;1.60;0.97;;;-2.20;99.90;;;;;;4181966;28;20457;-73
2021/12/25 10:04:35;;;;;;;2.27;1.10;;;-2.20;99.90;;;;;;4166379;28;20963;-73
2021/12/25 10:06:38;;;;;;;1.90;0.80;;;-2.20;99.90;;;;;;4173222;28;20475;-73
2021/12/25 10:08:40;;;;;;;1.43;0.90;;;-2.20;99.90;;;;;;4181977;28;20899;-73
2021/12/25 10:10:44;;;;;;;1.93;0.93;;;-2.20;99.90;;;;;;4181723;28;20464;-72
2021/12/25 10:12:48;;;;;;;2.58;0.95;;;-2.20;99.90;;;;;;4179427;28;20465;-72
2021/12/25 10:14:54;;;;;;;1.77;1.00;;;-2.20;99.90;;;;;;4181623;28;20520;-73
2021/12/25 10:16:56;;;;;;;3.03;1.30;;;-2.20;99.90;;;;;;4181738;28;20950;-75
2021/12/25 10:19:13;;;;;;;1.30;0.80;;;-2.20;99.90;;;;;;4181737;28;20214;-72
2021/12/25 10:21:21;;;;;;;3.37;1.40;;;-2.10;99.90;;;;;;4179378;28;20199;-72
2021/12/25 10:23:29;;;;;;;2.57;1.13;;;-2.10;99.90;;;;;;4171471;28;20921;-73
2021/12/25 10:25:38;;;;;;;4.10;1.10;;;-2.10;99.90;;;;;;4181509;28;20477;-77
2021/12/25 10:27:50;;;;;;;3.10;1.30;;;-2.00;99.90;;;;;;4181865;28;20444;-77
2021/12/25 10:30:00;;;;;;;2.67;1.07;;;-2.00;99.90;;;;;;4175541;28;20878;-76
2021/12/25 10:32:17;;;;;;;3.73;1.20;;;-1.90;99.90;;;;;;4165202;28;20974;-77
2021/12/25 10:34:21;;;;;;;1.90;0.90;;;-1.90;99.90;;;;;;4175947;28;20520;-75
2021/12/25 10:36:28;;;;;;;2.67;1.30;;;-1.80;99.90;;;;;;4181134;28;20493;-76
2021/12/25 10:38:30;;;;;;;2.10;0.93;;;-1.80;99.90;;;;;;4170671;28;20470;-76
2021/12/25 10:40:35;;;;;;;6.00;1.70;;;-1.80;99.90;;;;;;4164635;28;20465;-78
2021/12/25 10:42:37;;;;;;;3.50;1.57;;;-1.70;99.90;;;;;;4164776;28;20465;-75
2021/12/25 10:44:41;;;;;;;3.43;1.20;;;-1.70;99.90;;;;;;4175590;28;20449;-77
2021/12/25 10:46:53;;;;;;;3.23;1.33;;;-1.60;99.90;;;;;;4174046;28;20477;-76
2021/12/25 10:48:55;;;;;;;1.43;0.83;;;-1.60;99.90;;;;;;4164866;28;20880;-74
2021/12/25 10:50:57;;;;;;;5.10;1.53;;;-1.50;99.90;;;;;;4164608;28;20535;-77
2021/12/25 10:52:59;;;;;;;2.43;1.10;;;-1.40;99.90;;;;;;4165917;28;20454;-76
2021/12/25 10:55:04;;;;;;;2.63;1.10;;;-1.40;99.90;;;;;;4175858;28;20492;-78
2021/12/25 10:57:06;;;;;;;3.93;1.40;;;-1.40;99.90;;;;;;4181147;28;20479;-77
2021/12/25 10:59:11;;;;;;;3.87;1.60;;;-1.30;99.90;;;;;;4181088;28;20464;-73
2021/12/25 11:01:16;;;;;;;2.77;1.23;;;-1.20;99.90;;;;;;4179914;28;20461;-77
2021/12/25 11:03:27;;;;;;;4.03;1.80;;;-1.20;99.90;;;;;;4174060;28;20558;-77
2021/12/25 11:05:31;;;;;;;3.97;1.67;;;-1.10;99.90;;;;;;4176451;28;20489;-77
2021/12/25 11:07:33;;;;;;;5.93;2.00;;;-1.10;99.90;;;;;;4181103;28;20954;-76
2021/12/25 11:09:35;;;;;;;3.97;1.60;;;-1.00;99.90;;;;;;4181331;28;20963;-77
2021/12/25 11:11:36;;;;;;;3.13;1.50;;;-1.00;99.90;;;;;;4175351;28;20543;-77
2021/12/25 11:13:40;;;;;;;4.17;1.40;;;-1.00;99.90;;;;;;4164418;28;20462;-76
2021/12/25 11:15:42;;;;;;;2.43;1.30;;;-1.00;99.90;;;;;;4175474;28;20993;-76
2021/12/25 11:17:50;;;;;;;1.90;1.17;;;-0.90;99.90;;;;;;4181045;28;20491;-78
2021/12/25 11:20:00;;;;;;;3.07;1.20;;;-0.90;99.90;;;;;;4170910;28;20961;-77
2021/12/25 11:22:01;;;;;;;2.80;1.30;;;-0.90;99.90;;;;;;4164549;28;20532;-78
2021/12/25 11:24:06;;;;;;;2.33;1.53;;;-0.90;99.90;;;;;;4164618;28;20461;-76
2021/12/25 11:26:08;;;;;;;3.23;1.40;;;-0.90;99.90;;;;;;4175960;28;20475;-78
2021/12/25 11:28:12;;;;;;;2.40;1.20;;;-0.80;99.90;;;;;;4180983;28;20466;-78
2021/12/25 11:30:14;;;;;;;2.73;1.37;;;-0.90;99.90;;;;;;4180493;28;20451;-76
2021/12/25 11:32:18;;;;;;;2.53;1.07;;;-0.90;99.90;;;;;;4165366;28;20478;-78
2021/12/25 11:34:22;;;;;;;3.07;1.20;;;-0.90;99.90;;;;;;4164388;28;20548;-78
2021/12/25 11:36:25;;;;;;;2.67;1.30;;;-0.90;99.90;;;;;;4174881;28;20480;-77